Weather at Maré Airport

Public forecast

Using degrees Celsius for public forecast. Weather courtesy of forecast.io.

Closest aviation weather report (METAR) to Maré Airport

Report is more than 6 hours old.

Closest report is Lifou Airport, 61.6 nm (114.1 km) NW. Retrieved 2010/10/01 08:00 UTC (12 years ago):

NWWL 010800Z AUTO 12007KT 090V170 9999NDV FEW019/// OVC240/// 25/21 Q1015

Aviation forecast (TAF) for Maré Airport

Forecast is more than 6 hours old.

Retrieved 2022/05/22 18:00 UTC (6 hours ago):

TAF NWWR 221700Z 2218/2318 VRB02KT 9999 FEW020 SCT025 TEMPO 2218/2220 0900 FG PROB30 TEMPO 2218/2220 VV/// TEMPO 2220/2224 4000 SHRA BKN014 FEW020TCU BECMG 2222/2224 31012KT TEMPO 2300/2306 VRB15G25KT SHRA FEW020TCU